sensor_id;sensor_type;location;lat;lon;timestamp;P1;durP1;ratioP1;P2;durP2;ratioP2
41643;SDS011;44236;48.098;11.582;2022-12-10T05:32:41;7.32;;;5.05;;
41643;SDS011;44236;48.098;11.582;2022-12-10T05:35:32;7.22;;;4.80;;
41643;SDS011;44236;48.098;11.582;2022-12-10T05:37:57;8.25;;;4.43;;
41643;SDS011;44236;48.098;11.582;2022-12-10T05:40:23;7.60;;;4.72;;
41643;SDS011;44236;48.098;11.582;2022-12-10T05:42:48;6.90;;;4.50;;
41643;SDS011;44236;48.098;11.582;2022-12-10T05:45:14;7.03;;;4.63;;
41643;SDS011;44236;48.098;11.582;2022-12-10T05:47:40;5.88;;;3.83;;
41643;SDS011;44236;48.098;11.582;2022-12-10T05:50:05;7.95;;;4.65;;
41643;SDS011;44236;48.098;11.582;2022-12-10T05:52:31;6.35;;;4.38;;
41643;SDS011;44236;48.098;11.582;2022-12-10T05:54:57;7.05;;;4.32;;
41643;SDS011;44236;48.098;11.582;2022-12-10T05:57:23;8.23;;;5.13;;
41643;SDS011;44236;48.098;11.582;2022-12-10T05:59:48;6.47;;;3.88;;
41643;SDS011;44236;48.098;11.582;2022-12-10T06:02:14;5.60;;;3.63;;
41643;SDS011;44236;48.098;11.582;2022-12-10T06:04:39;6.72;;;4.43;;
41643;SDS011;44236;48.098;11.582;2022-12-10T06:07:05;5.97;;;4.15;;
41643;SDS011;44236;48.098;11.582;2022-12-10T06:09:30;7.00;;;4.22;;
41643;SDS011;44236;48.098;11.582;2022-12-10T06:11:56;7.15;;;4.03;;
41643;SDS011;44236;48.098;11.582;2022-12-10T06:14:22;7.13;;;4.57;;
41643;SDS011;44236;48.098;11.582;2022-12-10T06:16:47;6.25;;;4.03;;
41643;SDS011;44236;48.098;11.582;2022-12-10T06:19:13;5.95;;;3.83;;
41643;SDS011;44236;48.098;11.582;2022-12-10T06:21:39;6.25;;;4.00;;
41643;SDS011;44236;48.098;11.582;2022-12-10T06:24:04;7.10;;;4.45;;
41643;SDS011;44236;48.098;11.582;2022-12-10T06:26:30;6.50;;;4.30;;
41643;SDS011;44236;48.098;11.582;2022-12-10T06:28:56;5.85;;;3.65;;
41643;SDS011;44236;48.098;11.582;2022-12-10T06:31:21;6.85;;;4.15;;
41643;SDS011;44236;48.098;11.582;2022-12-10T06:33:47;6.55;;;4.13;;
41643;SDS011;44236;48.098;11.582;2022-12-10T06:36:14;6.00;;;3.92;;
41643;SDS011;44236;48.098;11.582;2022-12-10T06:38:41;6.22;;;4.15;;
41643;SDS011;44236;48.098;11.582;2022-12-10T06:41:08;5.70;;;3.78;;
41643;SDS011;44236;48.098;11.582;2022-12-10T06:43:35;6.03;;;3.67;;
41643;SDS011;44236;48.098;11.582;2022-12-10T06:46:04;6.00;;;3.83;;
41643;SDS011;44236;48.098;11.582;2022-12-10T06:48:31;5.70;;;3.72;;
41643;SDS011;44236;48.098;11.582;2022-12-10T06:50:57;6.00;;;3.83;;
41643;SDS011;44236;48.098;11.582;2022-12-10T06:53:22;5.82;;;3.70;;
41643;SDS011;44236;48.098;11.582;2022-12-10T06:55:48;6.03;;;4.03;;
41643;SDS011;44236;48.098;11.582;2022-12-10T06:58:13;5.90;;;4.10;;
41643;SDS011;44236;48.098;11.582;2022-12-10T07:00:39;6.43;;;3.67;;
41643;SDS011;44236;48.098;11.582;2022-12-10T07:03:05;5.13;;;3.55;;
41643;SDS011;44236;48.098;11.582;2022-12-10T07:05:30;6.50;;;4.32;;
41643;SDS011;44236;48.098;11.582;2022-12-10T07:07:56;6.47;;;3.67;;
41643;SDS011;44236;48.098;11.582;2022-12-10T07:10:21;7.10;;;4.68;;
41643;SDS011;44236;48.098;11.582;2022-12-10T07:12:47;6.78;;;3.67;;
41643;SDS011;44236;48.098;11.582;2022-12-10T07:15:13;6.10;;;3.88;;
41643;SDS011;44236;48.098;11.582;2022-12-10T07:17:38;9.07;;;3.50;;
41643;SDS011;44236;48.098;11.582;2022-12-10T07:20:04;5.85;;;3.70;;
41643;SDS011;44236;48.098;11.582;2022-12-10T07:22:30;7.18;;;3.90;;
41643;SDS011;44236;48.098;11.582;2022-12-10T07:24:56;6.15;;;3.80;;
41643;SDS011;44236;48.098;11.582;2022-12-10T07:27:21;6.78;;;3.88;;
41643;SDS011;44236;48.098;11.582;2022-12-10T07:29:47;5.82;;;3.83;;
41643;SDS011;44236;48.098;11.582;2022-12-10T07:32:12;6.32;;;3.70;;
41643;SDS011;44236;48.098;11.582;2022-12-10T07:34:38;7.32;;;4.18;;
41643;SDS011;44236;48.098;11.582;2022-12-10T07:37:04;6.10;;;3.75;;
41643;SDS011;44236;48.098;11.582;2022-12-10T07:39:29;7.03;;;4.10;;
41643;SDS011;44236;48.098;11.582;2022-12-10T07:41:55;8.90;;;4.00;;
41643;SDS011;44236;48.098;11.582;2022-12-10T07:44:24;8.02;;;3.90;;
41643;SDS011;44236;48.098;11.582;2022-12-10T07:46:51;6.80;;;3.50;;
41643;SDS011;44236;48.098;11.582;2022-12-10T07:49:18;6.70;;;3.50;;
41643;SDS011;44236;48.098;11.582;2022-12-10T07:51:55;9.07;;;4.43;;
41643;SDS011;44236;48.098;11.582;2022-12-10T07:54:21;9.88;;;5.72;;
41643;SDS011;44236;48.098;11.582;2022-12-10T07:56:47;42.45;;;15.43;;
41643;SDS011;44236;48.098;11.582;2022-12-10T07:59:13;33.40;;;14.73;;
41643;SDS011;44236;48.098;11.582;2022-12-10T08:01:39;34.75;;;15.18;;
41643;SDS011;44236;48.098;11.582;2022-12-10T08:04:05;38.25;;;15.80;;
41643;SDS011;44236;48.098;11.582;2022-12-10T08:06:31;40.38;;;18.40;;
41643;SDS011;44236;48.098;11.582;2022-12-10T08:08:58;50.40;;;17.15;;
41643;SDS011;44236;48.098;11.582;2022-12-10T08:11:24;34.47;;;16.33;;
41643;SDS011;44236;48.098;11.582;2022-12-10T08:13:51;55.42;;;18.02;;
41643;SDS011;44236;48.098;11.582;2022-12-10T08:16:18;45.80;;;18.17;;
41643;SDS011;44236;48.098;11.582;2022-12-10T08:18:48;45.72;;;17.15;;
41643;SDS011;44236;48.098;11.582;2022-12-10T08:21:18;36.10;;;14.13;;
41643;SDS011;44236;48.098;11.582;2022-12-10T08:23:45;42.42;;;17.17;;
41643;SDS011;44236;48.098;11.582;2022-12-10T08:26:12;42.40;;;16.48;;
41643;SDS011;44236;48.098;11.582;2022-12-10T08:28:40;48.75;;;16.38;;
41643;SDS011;44236;48.098;11.582;2022-12-10T08:31:07;33.15;;;15.00;;
41643;SDS011;44236;48.098;11.582;2022-12-10T08:33:37;52.65;;;15.95;;
41643;SDS011;44236;48.098;11.582;2022-12-10T08:36:03;41.63;;;14.77;;
41643;SDS011;44236;48.098;11.582;2022-12-10T08:38:30;38.60;;;15.63;;
41643;SDS011;44236;48.098;11.582;2022-12-10T08:40:56;29.25;;;13.30;;
41643;SDS011;44236;48.098;11.582;2022-12-10T08:43:22;36.42;;;14.32;;
41643;SDS011;44236;48.098;11.582;2022-12-10T08:45:48;33.13;;;14.88;;
41643;SDS011;44236;48.098;11.582;2022-12-10T08:48:14;31.50;;;13.70;;
41643;SDS011;44236;48.098;11.582;2022-12-10T08:50:40;33.00;;;13.50;;
41643;SDS011;44236;48.098;11.582;2022-12-10T08:53:05;38.53;;;14.60;;
41643;SDS011;44236;48.098;11.582;2022-12-10T08:55:31;34.00;;;14.95;;
41643;SDS011;44236;48.098;11.582;2022-12-10T08:57:57;34.05;;;14.80;;
41643;SDS011;44236;48.098;11.582;2022-12-10T09:00:23;35.63;;;15.43;;
41643;SDS011;44236;48.098;11.582;2022-12-10T09:02:50;43.13;;;16.42;;
41643;SDS011;44236;48.098;11.582;2022-12-10T09:05:16;45.60;;;18.35;;
41643;SDS011;44236;48.098;11.582;2022-12-10T09:07:42;42.78;;;18.73;;
41643;SDS011;44236;48.098;11.582;2022-12-10T09:10:09;50.70;;;20.85;;
41643;SDS011;44236;48.098;11.582;2022-12-10T09:12:38;50.00;;;20.63;;
41643;SDS011;44236;48.098;11.582;2022-12-10T09:15:05;51.55;;;22.33;;
41643;SDS011;44236;48.098;11.582;2022-12-10T09:17:34;55.75;;;23.35;;
41643;SDS011;44236;48.098;11.582;2022-12-10T09:20:00;54.45;;;22.30;;
41643;SDS011;44236;48.098;11.582;2022-12-10T09:22:25;49.97;;;22.38;;
41643;SDS011;44236;48.098;11.582;2022-12-10T09:24:51;54.50;;;24.10;;
41643;SDS011;44236;48.098;11.582;2022-12-10T09:27:16;46.88;;;19.77;;
41643;SDS011;44236;48.098;11.582;2022-12-10T09:29:42;60.55;;;19.85;;
41643;SDS011;44236;48.098;11.582;2022-12-10T09:32:08;56.25;;;22.17;;
41643;SDS011;44236;48.098;11.582;2022-12-10T09:34:33;42.53;;;20.95;;
41643;SDS011;44236;48.098;11.582;2022-12-10T09:36:59;50.13;;;19.00;;
41643;SDS011;44236;48.098;11.582;2022-12-10T09:39:24;41.67;;;20.77;;
41643;SDS011;44236;48.098;11.582;2022-12-10T09:48:30;44.92;;;17.90;;
41643;SDS011;44236;48.098;11.582;2022-12-10T09:51:19;40.13;;;17.17;;
41643;SDS011;44236;48.098;11.582;2022-12-10T09:54:01;42.00;;;17.50;;
41643;SDS011;44236;48.098;11.582;2022-12-10T09:56:32;37.25;;;16.85;;
41643;SDS011;44236;48.098;11.582;2022-12-10T09:59:03;40.42;;;15.73;;
41643;SDS011;44236;48.098;11.582;2022-12-10T10:01:40;35.55;;;17.02;;
41643;SDS011;44236;48.098;11.582;2022-12-10T10:04:08;31.33;;;16.08;;
41643;SDS011;44236;48.098;11.582;2022-12-10T10:06:34;34.65;;;15.00;;
41643;SDS011;44236;48.098;11.582;2022-12-10T10:09:00;35.47;;;14.05;;
41643;SDS011;44236;48.098;11.582;2022-12-10T10:11:29;30.75;;;14.02;;
41643;SDS011;44236;48.098;11.582;2022-12-10T10:14:04;38.38;;;14.45;;
41643;SDS011;44236;48.098;11.582;2022-12-10T10:16:35;30.80;;;13.45;;
41643;SDS011;44236;48.098;11.582;2022-12-10T10:19:31;33.33;;;13.82;;
41643;SDS011;44236;48.098;11.582;2022-12-10T10:22:02;31.42;;;11.77;;
41643;SDS011;44236;48.098;11.582;2022-12-10T10:24:36;26.85;;;13.82;;
41643;SDS011;44236;48.098;11.582;2022-12-10T10:27:13;20.80;;;10.10;;
41643;SDS011;44236;48.098;11.582;2022-12-10T10:29:41;27.73;;;12.88;;
41643;SDS011;44236;48.098;11.582;2022-12-10T10:34:38;29.77;;;12.77;;
41643;SDS011;44236;48.098;11.582;2022-12-10T10:37:04;34.28;;;12.93;;
41643;SDS011;44236;48.098;11.582;2022-12-10T10:39:31;28.10;;;12.15;;
41643;SDS011;44236;48.098;11.582;2022-12-10T10:41:59;24.58;;;10.50;;
41643;SDS011;44236;48.098;11.582;2022-12-10T10:44:34;23.35;;;9.27;;
41643;SDS011;44236;48.098;11.582;2022-12-10T10:47:02;25.02;;;9.30;;
41643;SDS011;44236;48.098;11.582;2022-12-10T10:49:47;23.55;;;10.95;;
41643;SDS011;44236;48.098;11.582;2022-12-10T10:52:14;24.33;;;10.15;;
41643;SDS011;44236;48.098;11.582;2022-12-10T10:54:42;20.83;;;10.13;;
41643;SDS011;44236;48.098;11.582;2022-12-10T11:00:03;25.55;;;10.15;;
41643;SDS011;44236;48.098;11.582;2022-12-10T11:02:41;18.70;;;9.45;;
41643;SDS011;44236;48.098;11.582;2022-12-10T11:05:08;17.55;;;9.52;;
41643;SDS011;44236;48.098;11.582;2022-12-10T11:07:40;18.85;;;8.45;;
41643;SDS011;44236;48.098;11.582;2022-12-10T11:10:17;25.33;;;9.38;;
41643;SDS011;44236;48.098;11.582;2022-12-10T11:15:34;19.23;;;8.95;;
41643;SDS011;44236;48.098;11.582;2022-12-10T11:18:51;15.15;;;9.25;;
41643;SDS011;44236;48.098;11.582;2022-12-10T11:21:01;24.20;;;9.57;;
41643;SDS011;44236;48.098;11.582;2022-12-10T11:23:48;19.77;;;8.45;;
41643;SDS011;44236;48.098;11.582;2022-12-10T11:28:56;20.50;;;8.82;;
41643;SDS011;44236;48.098;11.582;2022-12-10T11:50:41;18.92;;;11.07;;
41643;SDS011;44236;48.098;11.582;2022-12-10T11:56:08;24.90;;;13.85;;
41643;SDS011;44236;48.098;11.582;2022-12-10T11:58:43;17.67;;;10.52;;
41643;SDS011;44236;48.098;11.582;2022-12-10T12:15:11;15.05;;;7.32;;
41643;SDS011;44236;48.098;11.582;2022-12-10T12:17:40;11.73;;;6.75;;
41643;SDS011;44236;48.098;11.582;2022-12-10T12:23:05;9.88;;;5.82;;
41643;SDS011;44236;48.098;11.582;2022-12-10T12:25:47;25.48;;;12.43;;
41643;SDS011;44236;48.098;11.582;2022-12-10T12:28:20;41.70;;;19.05;;
41643;SDS011;44236;48.098;11.582;2022-12-10T12:31:29;52.78;;;24.25;;
41643;SDS011;44236;48.098;11.582;2022-12-10T12:36:32;49.35;;;23.67;;
41643;SDS011;44236;48.098;11.582;2022-12-10T12:44:39;54.28;;;25.20;;
41643;SDS011;44236;48.098;11.582;2022-12-10T12:49:52;50.95;;;26.65;;
41643;SDS011;44236;48.098;11.582;2022-12-10T12:52:29;47.80;;;21.40;;
41643;SDS011;44236;48.098;11.582;2022-12-10T12:55:54;35.97;;;18.50;;
41643;SDS011;44236;48.098;11.582;2022-12-10T12:58:47;48.08;;;22.60;;
41643;SDS011;44236;48.098;11.582;2022-12-10T13:01:33;40.97;;;20.05;;
41643;SDS011;44236;48.098;11.582;2022-12-10T13:04:12;38.95;;;18.40;;
41643;SDS011;44236;48.098;11.582;2022-12-10T13:06:39;37.78;;;19.88;;
41643;SDS011;44236;48.098;11.582;2022-12-10T13:11:38;31.77;;;16.10;;
41643;SDS011;44236;48.098;11.582;2022-12-10T13:16:34;36.92;;;18.35;;
41643;SDS011;44236;48.098;11.582;2022-12-10T13:37:33;31.52;;;15.98;;
41643;SDS011;44236;48.098;11.582;2022-12-10T13:45:41;28.65;;;13.82;;
41643;SDS011;44236;48.098;11.582;2022-12-10T13:50:38;26.52;;;13.40;;
41643;SDS011;44236;48.098;11.582;2022-12-10T14:04:27;23.13;;;10.88;;
41643;SDS011;44236;48.098;11.582;2022-12-10T14:07:09;29.92;;;12.40;;
41643;SDS011;44236;48.098;11.582;2022-12-10T14:09:56;20.05;;;10.82;;
41643;SDS011;44236;48.098;11.582;2022-12-10T14:12:25;23.75;;;11.77;;
41643;SDS011;44236;48.098;11.582;2022-12-10T14:14:56;25.40;;;12.75;;
41643;SDS011;44236;48.098;11.582;2022-12-10T14:17:37;26.85;;;11.20;;
41643;SDS011;44236;48.098;11.582;2022-12-10T14:20:06;24.60;;;12.40;;
41643;SDS011;44236;48.098;11.582;2022-12-10T14:22:34;20.30;;;10.90;;
41643;SDS011;44236;48.098;11.582;2022-12-10T14:25:05;18.67;;;10.25;;
41643;SDS011;44236;48.098;11.582;2022-12-10T14:27:36;24.13;;;11.55;;
41643;SDS011;44236;48.098;11.582;2022-12-10T14:32:41;21.95;;;10.73;;
41643;SDS011;44236;48.098;11.582;2022-12-10T14:35:12;20.50;;;9.35;;
41643;SDS011;44236;48.098;11.582;2022-12-10T14:37:41;21.77;;;10.00;;
41643;SDS011;44236;48.098;11.582;2022-12-10T14:40:09;17.77;;;8.32;;
41643;SDS011;44236;48.098;11.582;2022-12-10T14:42:51;17.85;;;9.40;;
41643;SDS011;44236;48.098;11.582;2022-12-10T14:45:22;17.90;;;8.82;;
41643;SDS011;44236;48.098;11.582;2022-12-10T14:47:48;16.73;;;8.35;;
41643;SDS011;44236;48.098;11.582;2022-12-10T14:50:15;19.73;;;9.15;;
41643;SDS011;44236;48.098;11.582;2022-12-10T14:52:42;17.98;;;8.23;;
41643;SDS011;44236;48.098;11.582;2022-12-10T14:55:13;20.77;;;9.35;;
41643;SDS011;44236;48.098;11.582;2022-12-10T14:57:42;15.45;;;7.78;;
41643;SDS011;44236;48.098;11.582;2022-12-10T15:00:12;15.45;;;7.55;;
41643;SDS011;44236;48.098;11.582;2022-12-10T15:02:43;18.45;;;7.35;;
41643;SDS011;44236;48.098;11.582;2022-12-10T15:07:55;16.55;;;8.18;;
41643;SDS011;44236;48.098;11.582;2022-12-10T15:10:32;16.55;;;6.88;;
41643;SDS011;44236;48.098;11.582;2022-12-10T15:13:01;17.58;;;7.65;;
41643;SDS011;44236;48.098;11.582;2022-12-10T15:15:38;12.48;;;6.50;;
41643;SDS011;44236;48.098;11.582;2022-12-10T15:20:50;13.55;;;6.93;;
41643;SDS011;44236;48.098;11.582;2022-12-10T15:28:24;15.35;;;7.22;;
41643;SDS011;44236;48.098;11.582;2022-12-10T15:33:43;14.35;;;7.07;;
41643;SDS011;44236;48.098;11.582;2022-12-10T15:36:23;12.30;;;6.40;;
41643;SDS011;44236;48.098;11.582;2022-12-10T15:38:56;10.45;;;6.20;;
41643;SDS011;44236;48.098;11.582;2022-12-10T15:44:19;10.65;;;6.32;;
41643;SDS011;44236;48.098;11.582;2022-12-10T15:47:05;11.73;;;5.77;;
41643;SDS011;44236;48.098;11.582;2022-12-10T15:49:42;12.40;;;6.32;;
41643;SDS011;44236;48.098;11.582;2022-12-10T15:52:11;10.82;;;6.03;;
41643;SDS011;44236;48.098;11.582;2022-12-10T15:54:39;10.65;;;5.68;;
41643;SDS011;44236;48.098;11.582;2022-12-10T15:57:11;10.98;;;5.68;;
41643;SDS011;44236;48.098;11.582;2022-12-10T15:59:42;11.15;;;6.20;;
41643;SDS011;44236;48.098;11.582;2022-12-10T16:07:38;11.82;;;5.90;;
41643;SDS011;44236;48.098;11.582;2022-12-10T16:10:04;10.02;;;5.47;;
41643;SDS011;44236;48.098;11.582;2022-12-10T16:12:31;9.20;;;5.60;;
41643;SDS011;44236;48.098;11.582;2022-12-10T16:14:59;8.90;;;5.18;;
41643;SDS011;44236;48.098;11.582;2022-12-10T16:17:26;9.15;;;5.38;;
41643;SDS011;44236;48.098;11.582;2022-12-10T16:20:37;9.98;;;5.03;;
41643;SDS011;44236;48.098;11.582;2022-12-10T16:22:41;9.05;;;5.03;;
41643;SDS011;44236;48.098;11.582;2022-12-10T16:25:07;9.57;;;4.75;;
41643;SDS011;44236;48.098;11.582;2022-12-10T16:27:32;14.75;;;4.80;;
41643;SDS011;44236;48.098;11.582;2022-12-10T16:30:04;13.45;;;7.93;;
41643;SDS011;44236;48.098;11.582;2022-12-10T16:32:36;15.50;;;10.15;;
41643;SDS011;44236;48.098;11.582;2022-12-10T16:35:02;15.85;;;11.32;;
41643;SDS011;44236;48.098;11.582;2022-12-10T16:37:28;18.52;;;9.40;;
41643;SDS011;44236;48.098;11.582;2022-12-10T16:39:53;13.45;;;8.23;;
41643;SDS011;44236;48.098;11.582;2022-12-10T16:42:19;14.18;;;6.32;;
41643;SDS011;44236;48.098;11.582;2022-12-10T16:44:45;12.02;;;6.93;;
41643;SDS011;44236;48.098;11.582;2022-12-10T16:47:11;9.23;;;5.75;;
41643;SDS011;44236;48.098;11.582;2022-12-10T16:49:37;9.95;;;5.28;;
41643;SDS011;44236;48.098;11.582;2022-12-10T16:52:03;10.80;;;6.28;;
41643;SDS011;44236;48.098;11.582;2022-12-10T16:54:29;12.32;;;5.75;;
41643;SDS011;44236;48.098;11.582;2022-12-10T16:56:55;13.68;;;5.72;;
41643;SDS011;44236;48.098;11.582;2022-12-10T16:59:21;17.45;;;6.75;;
41643;SDS011;44236;48.098;11.582;2022-12-10T17:01:46;23.48;;;6.78;;
41643;SDS011;44236;48.098;11.582;2022-12-10T17:04:12;31.23;;;7.63;;
41643;SDS011;44236;48.098;11.582;2022-12-10T17:06:37;26.08;;;6.07;;
41643;SDS011;44236;48.098;11.582;2022-12-10T17:09:03;31.67;;;6.57;;
41643;SDS011;44236;48.098;11.582;2022-12-10T17:11:38;24.30;;;6.07;;
41643;SDS011;44236;48.098;11.582;2022-12-10T17:14:25;26.48;;;6.85;;
41643;SDS011;44236;48.098;11.582;2022-12-10T17:16:54;23.25;;;6.43;;
41643;SDS011;44236;48.098;11.582;2022-12-10T17:19:22;24.73;;;7.57;;
41643;SDS011;44236;48.098;11.582;2022-12-10T17:21:49;14.93;;;5.10;;
41643;SDS011;44236;48.098;11.582;2022-12-10T17:24:15;13.02;;;4.72;;
41643;SDS011;44236;48.098;11.582;2022-12-10T17:26:41;23.27;;;6.65;;
41643;SDS011;44236;48.098;11.582;2022-12-10T17:29:21;17.90;;;6.30;;
41643;SDS011;44236;48.098;11.582;2022-12-10T17:31:52;19.95;;;5.28;;
41643;SDS011;44236;48.098;11.582;2022-12-10T17:34:18;12.90;;;5.78;;
41643;SDS011;44236;48.098;11.582;2022-12-10T17:36:45;16.90;;;5.32;;
41643;SDS011;44236;48.098;11.582;2022-12-10T17:39:15;11.55;;;4.40;;
41643;SDS011;44236;48.098;11.582;2022-12-10T17:41:42;13.15;;;5.63;;
41643;SDS011;44236;48.098;11.582;2022-12-10T17:44:08;10.15;;;5.30;;
41643;SDS011;44236;48.098;11.582;2022-12-10T17:46:34;14.70;;;4.40;;
41643;SDS011;44236;48.098;11.582;2022-12-10T17:49:00;11.65;;;4.47;;
41643;SDS011;44236;48.098;11.582;2022-12-10T17:51:26;17.20;;;5.22;;
41643;SDS011;44236;48.098;11.582;2022-12-10T17:53:53;12.57;;;5.35;;
41643;SDS011;44236;48.098;11.582;2022-12-10T17:56:20;10.10;;;4.38;;
41643;SDS011;44236;48.098;11.582;2022-12-10T17:58:48;16.70;;;5.22;;
41643;SDS011;44236;48.098;11.582;2022-12-10T18:01:15;15.10;;;5.88;;
41643;SDS011;44236;48.098;11.582;2022-12-10T18:03:41;15.77;;;5.53;;
41643;SDS011;44236;48.098;11.582;2022-12-10T18:06:14;11.95;;;6.03;;
41643;SDS011;44236;48.098;11.582;2022-12-10T18:08:43;13.55;;;6.10;;
41643;SDS011;44236;48.098;11.582;2022-12-10T18:11:16;15.52;;;7.00;;
41643;SDS011;44236;48.098;11.582;2022-12-10T18:13:44;14.77;;;6.57;;
41643;SDS011;44236;48.098;11.582;2022-12-10T18:16:11;13.52;;;7.45;;
41643;SDS011;44236;48.098;11.582;2022-12-10T18:18:38;20.83;;;8.40;;
41643;SDS011;44236;48.098;11.582;2022-12-10T18:21:04;23.35;;;9.93;;
41643;SDS011;44236;48.098;11.582;2022-12-10T18:23:31;21.17;;;9.82;;
41643;SDS011;44236;48.098;11.582;2022-12-10T18:25:58;22.05;;;9.82;;
41643;SDS011;44236;48.098;11.582;2022-12-10T18:30:50;30.42;;;14.73;;
41643;SDS011;44236;48.098;11.582;2022-12-10T18:33:18;20.70;;;9.65;;
41643;SDS011;44236;48.098;11.582;2022-12-10T18:35:45;25.50;;;13.98;;
41643;SDS011;44236;48.098;11.582;2022-12-10T18:38:14;30.85;;;14.68;;
41643;SDS011;44236;48.098;11.582;2022-12-10T18:40:41;35.33;;;15.43;;
41643;SDS011;44236;48.098;11.582;2022-12-10T18:43:07;38.33;;;16.52;;
41643;SDS011;44236;48.098;11.582;2022-12-10T18:45:33;37.17;;;15.73;;
41643;SDS011;44236;48.098;11.582;2022-12-10T18:47:58;29.98;;;14.98;;
41643;SDS011;44236;48.098;11.582;2022-12-10T18:50:25;30.02;;;14.07;;
41643;SDS011;44236;48.098;11.582;2022-12-10T18:52:52;24.80;;;13.50;;
41643;SDS011;44236;48.098;11.582;2022-12-10T18:55:19;31.63;;;16.42;;
41643;SDS011;44236;48.098;11.582;2022-12-10T18:57:47;31.52;;;14.90;;
41643;SDS011;44236;48.098;11.582;2022-12-10T19:00:14;29.55;;;13.32;;
41643;SDS011;44236;48.098;11.582;2022-12-10T19:02:42;29.30;;;13.85;;
41643;SDS011;44236;48.098;11.582;2022-12-10T19:05:09;26.50;;;13.75;;
41643;SDS011;44236;48.098;11.582;2022-12-10T19:07:35;30.83;;;14.15;;
41643;SDS011;44236;48.098;11.582;2022-12-10T19:10:01;32.53;;;14.30;;
41643;SDS011;44236;48.098;11.582;2022-12-10T19:12:28;22.88;;;12.55;;
41643;SDS011;44236;48.098;11.582;2022-12-10T19:14:54;26.13;;;11.95;;
41643;SDS011;44236;48.098;11.582;2022-12-10T19:17:19;21.70;;;11.65;;
41643;SDS011;44236;48.098;11.582;2022-12-10T19:19:45;29.98;;;13.18;;
41643;SDS011;44236;48.098;11.582;2022-12-10T19:22:10;31.17;;;13.05;;
41643;SDS011;44236;48.098;11.582;2022-12-10T19:24:36;27.27;;;12.25;;
41643;SDS011;44236;48.098;11.582;2022-12-10T19:27:02;27.98;;;12.75;;
41643;SDS011;44236;48.098;11.582;2022-12-10T19:29:28;23.85;;;11.63;;
41643;SDS011;44236;48.098;11.582;2022-12-10T19:31:54;30.08;;;11.90;;
41643;SDS011;44236;48.098;11.582;2022-12-10T19:34:20;21.42;;;11.50;;
41643;SDS011;44236;48.098;11.582;2022-12-10T19:36:46;24.85;;;13.02;;
41643;SDS011;44236;48.098;11.582;2022-12-10T19:39:17;28.90;;;11.73;;
41643;SDS011;44236;48.098;11.582;2022-12-10T19:41:45;25.95;;;11.98;;
41643;SDS011;44236;48.098;11.582;2022-12-10T19:44:10;28.38;;;12.30;;
41643;SDS011;44236;48.098;11.582;2022-12-10T19:46:36;20.90;;;10.60;;
41643;SDS011;44236;48.098;11.582;2022-12-10T19:49:02;22.85;;;12.00;;
41643;SDS011;44236;48.098;11.582;2022-12-10T19:51:28;21.27;;;9.88;;
41643;SDS011;44236;48.098;11.582;2022-12-10T19:53:54;18.45;;;9.73;;
41643;SDS011;44236;48.098;11.582;2022-12-10T19:56:21;23.42;;;10.80;;
41643;SDS011;44236;48.098;11.582;2022-12-10T19:58:50;21.98;;;10.50;;
41643;SDS011;44236;48.098;11.582;2022-12-10T20:01:17;25.02;;;10.45;;
41643;SDS011;44236;48.098;11.582;2022-12-10T20:03:43;23.30;;;11.38;;
41643;SDS011;44236;48.098;11.582;2022-12-10T20:06:32;19.27;;;10.13;;
41643;SDS011;44236;48.098;11.582;2022-12-10T20:09:03;23.05;;;10.23;;
41643;SDS011;44236;48.098;11.582;2022-12-10T20:11:34;22.10;;;10.05;;
41643;SDS011;44236;48.098;11.582;2022-12-10T20:14:00;20.83;;;10.05;;
41643;SDS011;44236;48.098;11.582;2022-12-10T20:16:26;19.85;;;10.07;;
41643;SDS011;44236;48.098;11.582;2022-12-10T20:18:53;14.57;;;8.35;;
41643;SDS011;44236;48.098;11.582;2022-12-10T20:21:21;18.67;;;9.32;;
41643;SDS011;44236;48.098;11.582;2022-12-10T20:23:48;18.58;;;9.05;;
41643;SDS011;44236;48.098;11.582;2022-12-10T20:26:22;18.27;;;10.10;;
41643;SDS011;44236;48.098;11.582;2022-12-10T20:28:55;19.15;;;9.65;;
41643;SDS011;44236;48.098;11.582;2022-12-10T20:31:22;18.35;;;8.65;;
41643;SDS011;44236;48.098;11.582;2022-12-10T20:33:47;17.85;;;8.77;;
41643;SDS011;44236;48.098;11.582;2022-12-10T20:36:15;19.55;;;9.65;;
41643;SDS011;44236;48.098;11.582;2022-12-10T20:38:49;18.30;;;10.25;;
41643;SDS011;44236;48.098;11.582;2022-12-10T20:41:15;17.08;;;8.35;;
41643;SDS011;44236;48.098;11.582;2022-12-10T20:43:43;14.70;;;8.18;;
41643;SDS011;44236;48.098;11.582;2022-12-10T20:46:12;14.95;;;8.13;;
41643;SDS011;44236;48.098;11.582;2022-12-10T20:48:39;19.48;;;7.63;;
41643;SDS011;44236;48.098;11.582;2022-12-10T20:51:05;16.00;;;8.98;;
41643;SDS011;44236;48.098;11.582;2022-12-10T20:53:30;14.63;;;8.05;;
41643;SDS011;44236;48.098;11.582;2022-12-10T20:55:56;15.40;;;8.00;;
41643;SDS011;44236;48.098;11.582;2022-12-10T20:58:22;15.32;;;8.30;;
41643;SDS011;44236;48.098;11.582;2022-12-10T21:00:48;15.25;;;7.90;;
41643;SDS011;44236;48.098;11.582;2022-12-10T21:03:14;13.18;;;7.53;;
41643;SDS011;44236;48.098;11.582;2022-12-10T21:05:39;13.18;;;7.82;;
41643;SDS011;44236;48.098;11.582;2022-12-10T21:08:05;14.80;;;7.80;;
41643;SDS011;44236;48.098;11.582;2022-12-10T21:10:32;13.48;;;7.45;;
41643;SDS011;44236;48.098;11.582;2022-12-10T21:13:16;12.63;;;7.38;;
41643;SDS011;44236;48.098;11.582;2022-12-10T21:15:43;13.75;;;6.72;;
41643;SDS011;44236;48.098;11.582;2022-12-10T21:18:09;15.35;;;8.25;;
41643;SDS011;44236;48.098;11.582;2022-12-10T21:20:35;14.55;;;7.85;;
41643;SDS011;44236;48.098;11.582;2022-12-10T21:23:02;11.82;;;6.85;;
41643;SDS011;44236;48.098;11.582;2022-12-10T21:25:28;12.27;;;7.22;;
41643;SDS011;44236;48.098;11.582;2022-12-10T21:27:57;10.98;;;6.90;;
41643;SDS011;44236;48.098;11.582;2022-12-10T21:30:26;14.25;;;7.75;;
41643;SDS011;44236;48.098;11.582;2022-12-10T21:32:52;12.52;;;6.82;;
41643;SDS011;44236;48.098;11.582;2022-12-10T21:35:17;11.07;;;6.30;;
41643;SDS011;44236;48.098;11.582;2022-12-10T21:37:44;13.13;;;6.20;;
41643;SDS011;44236;48.098;11.582;2022-12-10T21:40:10;14.52;;;7.03;;
41643;SDS011;44236;48.098;11.582;2022-12-10T21:42:36;12.85;;;6.25;;
41643;SDS011;44236;48.098;11.582;2022-12-10T21:45:21;12.50;;;6.88;;
41643;SDS011;44236;48.098;11.582;2022-12-10T21:47:47;9.35;;;5.82;;
41643;SDS011;44236;48.098;11.582;2022-12-10T21:50:12;10.70;;;6.72;;
41643;SDS011;44236;48.098;11.582;2022-12-10T21:52:38;11.60;;;6.03;;
41643;SDS011;44236;48.098;11.582;2022-12-10T21:55:04;10.15;;;6.05;;
41643;SDS011;44236;48.098;11.582;2022-12-10T21:57:30;10.90;;;6.07;;
41643;SDS011;44236;48.098;11.582;2022-12-10T21:59:56;9.80;;;6.00;;
41643;SDS011;44236;48.098;11.582;2022-12-10T22:02:22;9.45;;;6.28;;
41643;SDS011;44236;48.098;11.582;2022-12-10T22:04:47;11.75;;;5.90;;
41643;SDS011;44236;48.098;11.582;2022-12-10T22:07:14;9.55;;;6.03;;
41643;SDS011;44236;48.098;11.582;2022-12-10T22:09:39;10.60;;;6.00;;
41643;SDS011;44236;48.098;11.582;2022-12-10T22:12:05;10.45;;;6.03;;
41643;SDS011;44236;48.098;11.582;2022-12-10T22:14:31;9.18;;;5.13;;
41643;SDS011;44236;48.098;11.582;2022-12-10T22:16:56;10.07;;;5.88;;